Norbank — PGIS — position and weather

sailwx.info

Track history (hours):
 
Tides and Currents Weather Stations Pressure Air Temp Water Temp Dewpoint Dewpoint Depression Visibility Wind Speed Wind Dir Waves Ship Positions

Norbank

Operator: P & O Ferries

Last reported at 2018-Feb-18 10:30 UTC. Time now 2018-Feb-18 10:47 UTC.
Position N 53°21' W 006°13'.

Length 167 m; draft 5.5 m.

Type: Ship (hazmat cat A). MMSI: 246213000.

Date/timePositionNaut miles runAvg speedWind from/ knotsBaromVisibWave heightAir tempDewpointWater temp
2018-Feb-18 10:30N 53°21' W 006°13'0 0.0
2018-Feb-18 09:59N 53°21' W 006°13'0 0.0
2018-Feb-18 09:29N 53°21' W 006°13'0 0.0
2018-Feb-18 08:59N 53°21' W 006°13'0 0.0
2018-Feb-18 08:23N 53°21' W 006°13'0 0.0
2018-Feb-18 07:46N 53°21' W 006°13'0 0.0
2018-Feb-18 07:10N 53°21' W 006°13'0 0.0
2018-Feb-18 06:37N 53°21' W 006°13'0 0.0
2018-Feb-18 06:25N 53°21' W 006°13'0 0.0
2018-Feb-18 05:57N 53°21' W 006°13'2 4.2
2018-Feb-18 05:30N 53°21' W 006°10'713.4
2018-Feb-18 05:01N 53°22' W 005°59'815.4
2018-Feb-18 04:30N 53°25' W 005°47'816.6
2018-Feb-18 04:00N 53°27' W 005°33'916.3
2018-Feb-18 03:28N 53°29' W 005°19'5617.1
2018-Feb-18 00:10N 53°34' W 003°45'318.0
2018-Feb-17 23:59N 53°34' W 003°39'918.0
2018-Feb-17 23:30N 53°33' W 003°25'917.0
2018-Feb-17 23:00N 53°32' W 003°11'714.6
2018-Feb-17 22:30N 53°27' W 003°01'0 0.6
2018-Feb-17 21:59N 53°27' W 003°01'0 0.8
2018-Feb-17 21:30N 53°27' W 003°01'0 0.0
2018-Feb-17 21:00N 53°27' W 003°01'0 0.0
2018-Feb-17 20:30N 53°27' W 003°01'0 0.0
2018-Feb-17 20:00N 53°27' W 003°01'0 0.0
2018-Feb-17 19:30N 53°27' W 003°01'0 0.0
2018-Feb-17 19:00N 53°27' W 003°01'0 0.0
2018-Feb-17 18:29N 53°27' W 003°01'0 0.0
2018-Feb-17 17:59N 53°27' W 003°01'0 0.0
2018-Feb-17 17:29N 53°27' W 003°01'0 0.9
2018-Feb-17 17:00N 53°27' W 003°01'0 0.1
2018-Feb-17 16:30N 53°27' W 003°01'4 7.7
2018-Feb-17 16:00N 53°30' W 003°06'613.1
2018-Feb-17 15:30N 53°31' W 003°16'918.5
2018-Feb-17 15:01N 53°31' W 003°32'918.7
2018-Feb-17 14:30N 53°32' W 003°48'1019.0
2018-Feb-17 14:00N 53°34' W 004°03'4619.3
2018-Feb-17 11:36N 53°29' W 005°21'220.9
2018-Feb-17 11:29N 53°28' W 005°25'1120.9
2018-Feb-17 10:59N 53°25' W 005°42'1020.7
2018-Feb-17 10:31N 53°22' W 005°57'714.7
2018-Feb-17 10:00N 53°21' W 006°10'2 3.2
2018-Feb-17 09:20N 53°21' W 006°13'0 0.0
2018-Feb-17 08:44N 53°21' W 006°13'0 0.0
2018-Feb-17 08:29N 53°21' W 006°13'0 0.0
2018-Feb-17 07:49N 53°21' W 006°13'0 0.0
2018-Feb-17 07:22N 53°21' W 006°13'0 0.0
2018-Feb-17 06:40N 53°21' W 006°13'0 0.0
2018-Feb-17 06:07N 53°21' W 006°13'0 0.0
2018-Feb-17 06:01N 53°21' W 006°13'0 0.0
2018-Feb-17 05:30N 53°21' W 006°13'0 0.8
2018-Feb-17 05:00N 53°21' W 006°12'5 9.1
2018-Feb-17 04:30N 53°20' W 006°05'816.5
2018-Feb-17 04:00N 53°23' W 005°52'917.0
2018-Feb-17 03:30N 53°26' W 005°38'7017.4
2018-Feb-16 23:27N 53°34' W 003°41'818.3
2018-Feb-16 23:00N 53°33' W 003°27'917.1
2018-Feb-16 22:30N 53°31' W 003°13'510.8
2018-Feb-16 22:00N 53°29' W 003°05'3 5.1
2018-Feb-16 21:27N 53°27' W 003°01'0 0.9
2018-Feb-16 21:00N 53°27' W 003°01'0 0.0
2018-Feb-16 20:29N 53°27' W 003°01'0 0.0
2018-Feb-16 19:59N 53°27' W 003°01'0 0.0
2018-Feb-16 19:26N 53°27' W 003°01'0 0.0
2018-Feb-16 18:59N 53°27' W 003°01'0 0.0
2018-Feb-16 18:25N 53°27' W 003°01'0 0.0
2018-Feb-16 17:58N 53°27' W 003°01'0 0.0
2018-Feb-16 17:28N 53°27' W 003°01'0 0.0
2018-Feb-16 17:00N 53°27' W 003°01'0 0.8
2018-Feb-16 16:30N 53°27' W 003°01'1 2.3
2018-Feb-16 16:00N 53°28' W 003°03'612.3
2018-Feb-16 15:29N 53°31' W 003°11'817.4
2018-Feb-16 15:00N 53°31' W 003°25'918.9
2018-Feb-16 14:30N 53°31' W 003°41'919.0
2018-Feb-16 14:01N 53°33' W 003°57'5319.1
2018-Feb-16 11:14N 53°28' W 005°26'921.0
2018-Feb-16 10:47N 53°26' W 005°41'820.9
2018-Feb-16 10:24N 53°22' W 005°54'718.5
2018-Feb-16 10:00N 53°20' W 006°05'5 8.8
2018-Feb-16 09:29N 53°21' W 006°13'0 0.2
2018-Feb-16 08:55N 53°21' W 006°13'0 0.0
2018-Feb-16 08:28N 53°21' W 006°13'0 0.0
2018-Feb-16 07:52N 53°21' W 006°13'0 0.0
2018-Feb-16 07:12N 53°21' W 006°13'0 0.0
2018-Feb-16 07:00N 53°21' W 006°13'0 0.0
2018-Feb-16 06:30N 53°21' W 006°13'0 0.0
2018-Feb-16 05:54N 53°21' W 006°13'0 0.0
2018-Feb-16 05:17N 53°21' W 006°13'0 0.6
2018-Feb-16 05:00N 53°21' W 006°13'5 9.9
2018-Feb-16 04:30N 53°20' W 006°05'816.8
2018-Feb-16 04:00N 53°24' W 005°52'7818.2
2018-Feb-15 23:42N 53°34' W 003°41'417.4
2018-Feb-15 23:29N 53°33' W 003°35'917.4
2018-Feb-15 22:59N 53°32' W 003°20'816.4
2018-Feb-15 22:30N 53°31' W 003°07'611.2
2018-Feb-15 22:00N 53°27' W 003°01'0 0.9
2018-Feb-15 21:30N 53°27' W 003°01'0 0.0
2018-Feb-15 20:58N 53°27' W 003°01'0 0.0
2018-Feb-15 20:25N 53°27' W 003°01'0 0.0
2018-Feb-15 19:58N 53°27' W 003°01'0 0.0
2018-Feb-15 19:30N 53°27' W 003°01'0 0.0
2018-Feb-15 18:57N 53°27' W 003°01'0 0.0
2018-Feb-15 18:27N 53°27' W 003°01'0 0.0
2018-Feb-15 18:00N 53°27' W 003°01'0 0.0
2018-Feb-15 17:30N 53°27' W 003°01'0 0.0
2018-Feb-15 17:00N 53°27' W 003°01'0 0.9
2018-Feb-15 16:30N 53°27' W 003°01'1 1.4
2018-Feb-15 16:01N 53°27' W 003°02'713.4
2018-Feb-15 15:30N 53°32' W 003°11'917.5
2018-Feb-15 14:59N 53°31' W 003°26'919.3
2018-Feb-15 14:30N 53°31' W 003°42'1019.1
2018-Feb-15 14:00N 53°33' W 003°58'6819.2
2018-Feb-15 10:29N 53°23' W 005°50'1019.2
2018-Feb-15 09:59N 53°20' W 006°05'4 9.3
2018-Feb-15 09:30N 53°21' W 006°13'0 0.5
2018-Feb-15 08:57N 53°21' W 006°13'0 0.0
2018-Feb-15 08:30N 53°21' W 006°13'0 0.0
2018-Feb-15 08:01N 53°21' W 006°13'0 0.0
2018-Feb-15 07:30N 53°21' W 006°13'0 0.0
2018-Feb-15 07:01N 53°21' W 006°13'0 0.0
2018-Feb-15 06:31N 53°21' W 006°13'0 0.0
2018-Feb-15 06:00N 53°21' W 006°13'0 0.0
2018-Feb-15 05:30N 53°21' W 006°13'0 0.6
2018-Feb-15 05:00N 53°21' W 006°13'510.0
2018-Feb-15 04:31N 53°20' W 006°04'815.1
2018-Feb-15 04:00N 53°23' W 005°53'815.2
2018-Feb-15 03:30N 53°26' W 005°41'715.0
2018-Feb-15 03:00N 53°28' W 005°29'6516.6
2018-Feb-14 23:06N 53°34' W 003°40'218.6
2018-Feb-14 23:00N 53°33' W 003°37'918.4
2018-Feb-14 22:30N 53°32' W 003°22'917.5
2018-Feb-14 22:00N 53°31' W 003°07'611.6
2018-Feb-14 21:30N 53°27' W 003°01'1 1.0
2018-Feb-14 20:59N 53°27' W 003°01'0 0.1
2018-Feb-14 20:29N 53°27' W 003°01'0 0.0
2018-Feb-14 19:58N 53°27' W 003°01'0 0.0
2018-Feb-14 19:28N 53°27' W 003°01'0 0.0
2018-Feb-14 18:58N 53°27' W 003°01'0 0.0
2018-Feb-14 18:25N 53°27' W 003°01'0 0.0
2018-Feb-14 17:57N 53°27' W 003°01'0 0.0
2018-Feb-14 17:30N 53°27' W 003°01'0 0.0
2018-Feb-14 17:00N 53°27' W 003°01'0 0.9
2018-Feb-14 16:30N 53°27' W 003°01'2 4.2
2018-Feb-14 16:00N 53°28' W 003°04'611.9
2018-Feb-14 15:31N 53°31' W 003°12'917.9
2018-Feb-14 15:00N 53°31' W 003°28'1019.1
2018-Feb-14 14:30N 53°31' W 003°44'1019.0
2018-Feb-14 14:00N 53°33' W 003°60'6518.5
2018-Feb-14 10:29N 53°24' W 005°48'919.5
2018-Feb-14 10:00N 53°20' W 006°02'611.8
2018-Feb-14 09:31N 53°21' W 006°12'1 0.2
2018-Feb-14 06:46N 53°21' W 006°13'0 0.0
2018-Feb-14 06:06N 53°21' W 006°13'0 0.0
2018-Feb-14 06:00N 53°21' W 006°13'0 0.0
2018-Feb-14 05:28N 53°21' W 006°13'1 2.7
2018-Feb-14 05:00N 53°21' W 006°11'713.2
2018-Feb-14 04:30N 53°22' W 006°00'1019.2
2018-Feb-14 04:00N 53°25' W 005°45'1219.7
2018-Feb-14 03:24N 53°28' W 005°26'6021.4
2018-Feb-14 00:35N 53°34' W 003°45'321.5
2018-Feb-14 00:28N 53°33' W 003°40'1021.3
2018-Feb-14 00:00N 53°32' W 003°24'1019.4
2018-Feb-13 23:31N 53°32' W 003°08'612.4
2018-Feb-13 23:00N 53°27' W 003°01'0 0.9
2018-Feb-13 22:30N 53°27' W 003°01'0 0.0
2018-Feb-13 22:00N 53°27' W 003°01'0 0.0
2018-Feb-13 21:30N 53°27' W 003°01'0 0.0
2018-Feb-13 21:00N 53°27' W 003°01'0 0.0
2018-Feb-13 20:26N 53°27' W 003°01'0 0.0
2018-Feb-13 19:59N 53°27' W 003°01'0 0.0
2018-Feb-13 19:26N 53°27' W 003°01'0 0.0
2018-Feb-13 18:59N 53°27' W 003°01'0 0.0
2018-Feb-13 18:28N 53°27' W 003°01'0 0.0
2018-Feb-13 17:58N 53°27' W 003°01'0 0.2
2018-Feb-13 17:30N 53°27' W 003°01'0 0.8
2018-Feb-13 17:01N 53°27' W 003°01'1 2.6
2018-Feb-13 16:30N 53°28' W 003°03'612.7
2018-Feb-13 16:00N 53°31' W 003°11'816.7
2018-Feb-13 15:30N 53°31' W 003°25'919.0
2018-Feb-13 15:00N 53°31' W 003°41'1019.6
2018-Feb-13 14:30N 53°33' W 003°58'6018.7
2018-Feb-13 11:18N 53°26' W 005°38'820.3
2018-Feb-13 10:54N 53°23' W 005°51'719.0
2018-Feb-13 10:30N 53°20' W 006°02'611.7
2018-Feb-13 10:00N 53°21' W 006°12'1 1.5
2018-Feb-13 09:30N 53°21' W 006°13'0 0.0
2018-Feb-13 08:51N 53°21' W 006°13'0 0.0
2018-Feb-13 08:12N 53°21' W 006°13'0 0.0
2018-Feb-13 08:00N 53°21' W 006°13'0 0.0
2018-Feb-13 07:27N 53°21' W 006°13'0 0.0
2018-Feb-13 06:44N 53°21' W 006°13'0 0.0
2018-Feb-13 06:29N 53°21' W 006°13'0 0.0
2018-Feb-13 06:00N 53°21' W 006°13'1 2.5
2018-Feb-13 05:30N 53°21' W 006°11'612.2
2018-Feb-13 05:00N 53°21' W 006°01'917.3
2018-Feb-13 04:30N 53°24' W 005°47'6416.3
2018-Feb-13 00:33N 53°35' W 004°00'620.1
2018-Feb-13 00:14N 53°34' W 003°50'520.2
2018-Feb-12 23:58N 53°33' W 003°41'919.8
2018-Feb-12 23:30N 53°33' W 003°26'918.9
2018-Feb-12 23:00N 53°32' W 003°10'714.4
2018-Feb-12 22:30N 53°27' W 003°01'0 0.9
2018-Feb-12 22:00N 53°27' W 003°01'0 0.3
2018-Feb-12 21:29N 53°27' W 003°01'0 0.0
2018-Feb-12 20:49N 53°27' W 003°01'0 0.0
2018-Feb-12 20:28N 53°27' W 003°01'0 0.0
2018-Feb-12 19:55N 53°27' W 003°01'0 0.0
2018-Feb-12 19:25N 53°27' W 003°01'0 0.0
2018-Feb-12 18:58N 53°27' W 003°01'0 0.0
2018-Feb-12 18:27N 53°27' W 003°01'0 0.0
2018-Feb-12 18:00N 53°27' W 003°01'0 0.0
2018-Feb-12 17:30N 53°27' W 003°01'0 0.0
2018-Feb-12 17:00N 53°27' W 003°01'0 0.0
2018-Feb-12 16:26N 53°27' W 003°01'0 0.0
2018-Feb-12 15:35N 53°27' W 003°01'0 0.0
2018-Feb-12 15:14N 53°27' W 003°01'0 0.0
2018-Feb-12 14:56N 53°27' W 003°01'0 0.0
2018-Feb-12 14:29N 53°27' W 003°01'0 0.0
2018-Feb-12 13:58N 53°27' W 003°01'0 0.0
2018-Feb-12 13:28N 53°27' W 003°01'0 0.0
2018-Feb-12 12:58N 53°27' W 003°01'0 0.0
2018-Feb-12 12:28N 53°27' W 003°01'0 0.0
2018-Feb-12 11:58N 53°27' W 003°01'0 0.0
2018-Feb-12 11:30N 53°27' W 003°01'0 0.0
2018-Feb-12 11:00N 53°27' W 003°01'0 0.0
2018-Feb-12 10:30N 53°27' W 003°01'0 0.0
2018-Feb-12 10:00N 53°27' W 003°01'0 0.0
2018-Feb-12 09:29N 53°27' W 003°01'0 0.0
2018-Feb-12 08:56N 53°27' W 003°01'0 0.0
2018-Feb-12 08:29N 53°27' W 003°01'0 0.0
2018-Feb-12 07:59N 53°27' W 003°01'0 0.0
2018-Feb-12 07:26N 53°27' W 003°01'0 0.0
2018-Feb-12 06:58N 53°27' W 003°01'0 0.0
2018-Feb-12 06:28N 53°27' W 003°01'0 0.0
2018-Feb-12 06:00N 53°27' W 003°01'0 0.9
2018-Feb-12 05:30N 53°27' W 003°01'1 2.8
2018-Feb-12 05:00N 53°28' W 003°03'714.2
2018-Feb-12 04:30N 53°31' W 003°14'714.7
2018-Feb-12 04:00N 53°31' W 003°26'714.0
2018-Feb-12 03:30N 53°31' W 003°38'713.5
2018-Feb-12 03:00N 53°31' W 003°49'713.6
2018-Feb-12 02:30N 53°32' W 004°00'5714.7
2018-Feb-11 22:36N 53°26' W 005°36'216.9
2018-Feb-11 22:27N 53°25' W 005°40'816.7
2018-Feb-11 22:00N 53°23' W 005°52'816.4
2018-Feb-11 21:30N 53°20' W 006°05'5 9.5
2018-Feb-11 21:00N 53°21' W 006°13'0 0.5
2018-Feb-11 20:11N 53°21' W 006°13'0 0.0
2018-Feb-11 19:59N 53°21' W 006°13'0 0.0
2018-Feb-11 19:29N 53°21' W 006°13'0 0.0
2018-Feb-11 17:55N 53°21' W 006°13'0 0.0
2018-Feb-11 17:13N 53°21' W 006°13'0 0.0
2018-Feb-11 16:58N 53°21' W 006°13'0 0.0
2018-Feb-11 16:28N 53°21' W 006°13'0 0.0
2018-Feb-11 15:42N 53°21' W 006°13'0 0.0
2018-Feb-11 15:27N 53°21' W 006°13'0 0.0
2018-Feb-11 15:00N 53°21' W 006°13'0 0.0
2018-Feb-11 14:04N 53°21' W 006°13'0 0.0
2018-Feb-11 13:59N 53°21' W 006°13'0 0.0
2018-Feb-11 13:19N 53°21' W 006°13'0 0.0
2018-Feb-11 12:53N 53°21' W 006°13'0 0.0
2018-Feb-11 12:29N 53°21' W 006°13'0 0.0
2018-Feb-11 11:59N 53°21' W 006°13'0 0.0
2018-Feb-11 11:13N 53°21' W 006°13'0 0.0
2018-Feb-11 10:40N 53°21' W 006°13'0 0.0
2018-Feb-11 10:28N 53°21' W 006°13'0 0.0
2018-Feb-11 09:58N 53°21' W 006°13'0 0.0
2018-Feb-11 09:10N 53°21' W 006°13'0 0.0
2018-Feb-11 08:33N 53°21' W 006°13'0 0.0
2018-Feb-11 08:30N 53°21' W 006°13'0 0.0
2018-Feb-11 06:29N 53°21' W 006°13'0 0.0
2018-Feb-11 05:58N 53°21' W 006°13'1 1.8
2018-Feb-11 05:30N 53°21' W 006°12'611.1
2018-Feb-11 05:00N 53°21' W 006°03'815.2
2018-Feb-11 04:30N 53°24' W 005°51'7215.0
2018-Feb-10 23:40N 53°34' W 003°51'714.2
2018-Feb-10 23:11N 53°34' W 003°39'313.9
2018-Feb-10 23:00N 53°33' W 003°35'713.8
2018-Feb-10 22:30N 53°33' W 003°23'714.1
2018-Feb-10 22:00N 53°32' W 003°11'714.7
2018-Feb-10 21:30N 53°27' W 003°02'0 0.6
2018-Feb-10 21:00N 53°27' W 003°01'0 0.9
2018-Feb-10 20:28N 53°27' W 003°01'0 0.0
2018-Feb-10 19:58N 53°27' W 003°01'0 0.0
2018-Feb-10 19:30N 53°27' W 003°01'0 0.0
2018-Feb-10 19:00N 53°27' W 003°01'0 0.0
2018-Feb-10 18:27N 53°27' W 003°01'0 0.0
2018-Feb-10 18:00N 53°27' W 003°01'0 0.0
2018-Feb-10 17:30N 53°27' W 003°01'0 0.0
2018-Feb-10 16:59N 53°27' W 003°01'0 0.9
2018-Feb-10 16:28N 53°27' W 003°01'0 0.2
2018-Feb-10 16:01N 53°27' W 003°01'815.2
2018-Feb-10 15:30N 53°31' W 003°12'1019.2
2018-Feb-10 15:00N 53°31' W 003°28'1019.3
2018-Feb-10 14:31N 53°31' W 003°44'1020.1
2018-Feb-10 14:01N 53°33' W 004°00'5319.8
2018-Feb-10 11:18N 53°27' W 005°30'820.6
2018-Feb-10 10:56N 53°25' W 005°42'920.5
2018-Feb-10 10:31N 53°22' W 005°56'815.6
2018-Feb-10 10:00N 53°21' W 006°09'3 3.1
2018-Feb-10 09:12N 53°21' W 006°13'0 0.0
2018-Feb-10 09:00N 53°21' W 006°13'0 0.0
2018-Feb-10 08:29N 53°21' W 006°13'0 0.0
2018-Feb-10 07:50N 53°21' W 006°13'0 0.0
2018-Feb-10 07:08N 53°21' W 006°13'0 0.0
2018-Feb-10 06:56N 53°21' W 006°13'0 0.0
2018-Feb-10 06:26N 53°21' W 006°13'1 1.2
2018-Feb-10 06:01N 53°21' W 006°12'510.7
2018-Feb-10 05:30N 53°21' W 006°03'816.2
2018-Feb-10 05:00N 53°24' W 005°51'1019.5
2018-Feb-10 04:30N 53°26' W 005°35'5919.1
2018-Feb-10 01:25N 53°35' W 003°57'920.6
2018-Feb-10 01:00N 53°34' W 003°42'1020.8
2018-Feb-10 00:30N 53°33' W 003°25'918.6
2018-Feb-10 00:00N 53°32' W 003°10'713.8
2018-Feb-09 23:30N 53°27' W 003°01'0 0.1
2018-Feb-09 23:01N 53°27' W 003°01'0 1.7
2018-Feb-09 22:46N 53°27' W 003°01'8 1.2
2018-Feb-09 16:31N 53°31' W 003°12'1616.3
2018-Feb-09 15:30N 53°31' W 003°40'87 7.9
2018-Feb-09 04:30N 53°20' W 006°05'918.2
2018-Feb-09 04:00N 53°24' W 005°51'9218.5
2018-Feb-08 23:00N 53°31' W 003°16'815.8
2018-Feb-08 22:30N 53°28' W 003°04'7 1.0
2018-Feb-08 15:30N 53°31' W 003°15'9519.0
2018-Feb-08 10:30N 53°23' W 005°54'  
Track history (hours):
 
Tides and Currents Weather Stations Pressure Air Temp Water Temp Dewpoint Dewpoint Depression Visibility Wind Speed Wind Dir Waves Ship Positions

Norbank

Operator: P & O Ferries

Last reported at 2018-Feb-18 10:30 UTC. Time now 2018-Feb-18 10:47 UTC.
Position N 53°21' W 006°13'.

Length 167 m; draft 5.5 m.

Type: Ship (hazmat cat A). MMSI: 246213000.

Date/timePositionNaut miles runAvg speedWind from/ knotsBaromVisibWave heightAir tempDewpointWater temp
2018-Feb-18 10:30N 53°21' W 006°13'0 0.0
2018-Feb-18 09:59N 53°21' W 006°13'0 0.0
2018-Feb-18 09:29N 53°21' W 006°13'0 0.0
2018-Feb-18 08:59N 53°21' W 006°13'0 0.0
2018-Feb-18 08:23N 53°21' W 006°13'0 0.0
2018-Feb-18 07:46N 53°21' W 006°13'0 0.0
2018-Feb-18 07:10N 53°21' W 006°13'0 0.0
2018-Feb-18 06:37N 53°21' W 006°13'0 0.0
2018-Feb-18 06:25N 53°21' W 006°13'0 0.0
2018-Feb-18 05:57N 53°21' W 006°13'2 4.2
2018-Feb-18 05:30N 53°21' W 006°10'713.4
2018-Feb-18 05:01N 53°22' W 005°59'815.4
2018-Feb-18 04:30N 53°25' W 005°47'816.6
2018-Feb-18 04:00N 53°27' W 005°33'916.3
2018-Feb-18 03:28N 53°29' W 005°19'5617.1
2018-Feb-18 00:10N 53°34' W 003°45'318.0
2018-Feb-17 23:59N 53°34' W 003°39'918.0
2018-Feb-17 23:30N 53°33' W 003°25'917.0
2018-Feb-17 23:00N 53°32' W 003°11'714.6
2018-Feb-17 22:30N 53°27' W 003°01'0 0.6
2018-Feb-17 21:59N 53°27' W 003°01'0 0.8
2018-Feb-17 21:30N 53°27' W 003°01'0 0.0
2018-Feb-17 21:00N 53°27' W 003°01'0 0.0
2018-Feb-17 20:30N 53°27' W 003°01'0 0.0
2018-Feb-17 20:00N 53°27' W 003°01'0 0.0
2018-Feb-17 19:30N 53°27' W 003°01'0 0.0
2018-Feb-17 19:00N 53°27' W 003°01'0 0.0
2018-Feb-17 18:29N 53°27' W 003°01'0 0.0
2018-Feb-17 17:59N 53°27' W 003°01'0 0.0
2018-Feb-17 17:29N 53°27' W 003°01'0 0.9
2018-Feb-17 17:00N 53°27' W 003°01'0 0.1
2018-Feb-17 16:30N 53°27' W 003°01'4 7.7
2018-Feb-17 16:00N 53°30' W 003°06'613.1
2018-Feb-17 15:30N 53°31' W 003°16'918.5
2018-Feb-17 15:01N 53°31' W 003°32'918.7
2018-Feb-17 14:30N 53°32' W 003°48'1019.0
2018-Feb-17 14:00N 53°34' W 004°03'4619.3
2018-Feb-17 11:36N 53°29' W 005°21'220.9
2018-Feb-17 11:29N 53°28' W 005°25'1120.9
2018-Feb-17 10:59N 53°25' W 005°42'1020.7
2018-Feb-17 10:31N 53°22' W 005°57'714.7
2018-Feb-17 10:00N 53°21' W 006°10'2 3.2
2018-Feb-17 09:20N 53°21' W 006°13'0 0.0
2018-Feb-17 08:44N 53°21' W 006°13'0 0.0
2018-Feb-17 08:29N 53°21' W 006°13'0 0.0
2018-Feb-17 07:49N 53°21' W 006°13'0 0.0
2018-Feb-17 07:22N 53°21' W 006°13'0 0.0
2018-Feb-17 06:40N 53°21' W 006°13'0 0.0
2018-Feb-17 06:07N 53°21' W 006°13'0 0.0
2018-Feb-17 06:01N 53°21' W 006°13'0 0.0
2018-Feb-17 05:30N 53°21' W 006°13'0 0.8
2018-Feb-17 05:00N 53°21' W 006°12'5 9.1
2018-Feb-17 04:30N 53°20' W 006°05'816.5
2018-Feb-17 04:00N 53°23' W 005°52'917.0
2018-Feb-17 03:30N 53°26' W 005°38'7017.4
2018-Feb-16 23:27N 53°34' W 003°41'818.3
2018-Feb-16 23:00N 53°33' W 003°27'917.1
2018-Feb-16 22:30N 53°31' W 003°13'510.8
2018-Feb-16 22:00N 53°29' W 003°05'3 5.1
2018-Feb-16 21:27N 53°27' W 003°01'0 0.9
2018-Feb-16 21:00N 53°27' W 003°01'0 0.0
2018-Feb-16 20:29N 53°27' W 003°01'0 0.0
2018-Feb-16 19:59N 53°27' W 003°01'0 0.0
2018-Feb-16 19:26N 53°27' W 003°01'0 0.0
2018-Feb-16 18:59N 53°27' W 003°01'0 0.0
2018-Feb-16 18:25N 53°27' W 003°01'0 0.0
2018-Feb-16 17:58N 53°27' W 003°01'0 0.0
2018-Feb-16 17:28N 53°27' W 003°01'0 0.0
2018-Feb-16 17:00N 53°27' W 003°01'0 0.8
2018-Feb-16 16:30N 53°27' W 003°01'1 2.3
2018-Feb-16 16:00N 53°28' W 003°03'612.3
2018-Feb-16 15:29N 53°31' W 003°11'817.4
2018-Feb-16 15:00N 53°31' W 003°25'918.9
2018-Feb-16 14:30N 53°31' W 003°41'919.0
2018-Feb-16 14:01N 53°33' W 003°57'5319.1
2018-Feb-16 11:14N 53°28' W 005°26'921.0
2018-Feb-16 10:47N 53°26' W 005°41'820.9
2018-Feb-16 10:24N 53°22' W 005°54'718.5
2018-Feb-16 10:00N 53°20' W 006°05'5 8.8
2018-Feb-16 09:29N 53°21' W 006°13'0 0.2
2018-Feb-16 08:55N 53°21' W 006°13'0 0.0
2018-Feb-16 08:28N 53°21' W 006°13'0 0.0
2018-Feb-16 07:52N 53°21' W 006°13'0 0.0
2018-Feb-16 07:12N 53°21' W 006°13'0 0.0
2018-Feb-16 07:00N 53°21' W 006°13'0 0.0
2018-Feb-16 06:30N 53°21' W 006°13'0 0.0
2018-Feb-16 05:54N 53°21' W 006°13'0 0.0
2018-Feb-16 05:17N 53°21' W 006°13'0 0.6
2018-Feb-16 05:00N 53°21' W 006°13'5 9.9
2018-Feb-16 04:30N 53°20' W 006°05'816.8
2018-Feb-16 04:00N 53°24' W 005°52'7818.2
2018-Feb-15 23:42N 53°34' W 003°41'417.4
2018-Feb-15 23:29N 53°33' W 003°35'917.4
2018-Feb-15 22:59N 53°32' W 003°20'816.4
2018-Feb-15 22:30N 53°31' W 003°07'611.2
2018-Feb-15 22:00N 53°27' W 003°01'0 0.9
2018-Feb-15 21:30N 53°27' W 003°01'0 0.0
2018-Feb-15 20:58N 53°27' W 003°01'0 0.0
2018-Feb-15 20:25N 53°27' W 003°01'0 0.0
2018-Feb-15 19:58N 53°27' W 003°01'0 0.0
2018-Feb-15 19:30N 53°27' W 003°01'0 0.0
2018-Feb-15 18:57N 53°27' W 003°01'0 0.0
2018-Feb-15 18:27N 53°27' W 003°01'0 0.0
2018-Feb-15 18:00N 53°27' W 003°01'0 0.0
2018-Feb-15 17:30N 53°27' W 003°01'0 0.0
2018-Feb-15 17:00N 53°27' W 003°01'0 0.9
2018-Feb-15 16:30N 53°27' W 003°01'1 1.4
2018-Feb-15 16:01N 53°27' W 003°02'713.4
2018-Feb-15 15:30N 53°32' W 003°11'917.5
2018-Feb-15 14:59N 53°31' W 003°26'919.3
2018-Feb-15 14:30N 53°31' W 003°42'1019.1
2018-Feb-15 14:00N 53°33' W 003°58'6819.2
2018-Feb-15 10:29N 53°23' W 005°50'1019.2
2018-Feb-15 09:59N 53°20' W 006°05'4 9.3
2018-Feb-15 09:30N 53°21' W 006°13'0 0.5
2018-Feb-15 08:57N 53°21' W 006°13'0 0.0
2018-Feb-15 08:30N 53°21' W 006°13'0 0.0
2018-Feb-15 08:01N 53°21' W 006°13'0 0.0
2018-Feb-15 07:30N 53°21' W 006°13'0 0.0
2018-Feb-15 07:01N 53°21' W 006°13'0 0.0
2018-Feb-15 06:31N 53°21' W 006°13'0 0.0
2018-Feb-15 06:00N 53°21' W 006°13'0 0.0
2018-Feb-15 05:30N 53°21' W 006°13'0 0.6
2018-Feb-15 05:00N 53°21' W 006°13'510.0
2018-Feb-15 04:31N 53°20' W 006°04'815.1
2018-Feb-15 04:00N 53°23' W 005°53'815.2
2018-Feb-15 03:30N 53°26' W 005°41'715.0
2018-Feb-15 03:00N 53°28' W 005°29'6516.6
2018-Feb-14 23:06N 53°34' W 003°40'218.6
2018-Feb-14 23:00N 53°33' W 003°37'918.4
2018-Feb-14 22:30N 53°32' W 003°22'917.5
2018-Feb-14 22:00N 53°31' W 003°07'611.6
2018-Feb-14 21:30N 53°27' W 003°01'1 1.0
2018-Feb-14 20:59N 53°27' W 003°01'0 0.1
2018-Feb-14 20:29N 53°27' W 003°01'0 0.0
2018-Feb-14 19:58N 53°27' W 003°01'0 0.0
2018-Feb-14 19:28N 53°27' W 003°01'0 0.0
2018-Feb-14 18:58N 53°27' W 003°01'0 0.0
2018-Feb-14 18:25N 53°27' W 003°01'0 0.0
2018-Feb-14 17:57N 53°27' W 003°01'0 0.0
2018-Feb-14 17:30N 53°27' W 003°01'0 0.0
2018-Feb-14 17:00N 53°27' W 003°01'0 0.9
2018-Feb-14 16:30N 53°27' W 003°01'2 4.2
2018-Feb-14 16:00N 53°28' W 003°04'611.9
2018-Feb-14 15:31N 53°31' W 003°12'917.9
2018-Feb-14 15:00N 53°31' W 003°28'1019.1
2018-Feb-14 14:30N 53°31' W 003°44'1019.0
2018-Feb-14 14:00N 53°33' W 003°60'6518.5
2018-Feb-14 10:29N 53°24' W 005°48'919.5
2018-Feb-14 10:00N 53°20' W 006°02'611.8
2018-Feb-14 09:31N 53°21' W 006°12'1 0.2
2018-Feb-14 06:46N 53°21' W 006°13'0 0.0
2018-Feb-14 06:06N 53°21' W 006°13'0 0.0
2018-Feb-14 06:00N 53°21' W 006°13'0 0.0
2018-Feb-14 05:28N 53°21' W 006°13'1 2.7
2018-Feb-14 05:00N 53°21' W 006°11'713.2
2018-Feb-14 04:30N 53°22' W 006°00'1019.2
2018-Feb-14 04:00N 53°25' W 005°45'1219.7
2018-Feb-14 03:24N 53°28' W 005°26'6021.4
2018-Feb-14 00:35N 53°34' W 003°45'321.5
2018-Feb-14 00:28N 53°33' W 003°40'1021.3
2018-Feb-14 00:00N 53°32' W 003°24'1019.4
2018-Feb-13 23:31N 53°32' W 003°08'612.4
2018-Feb-13 23:00N 53°27' W 003°01'0 0.9
2018-Feb-13 22:30N 53°27' W 003°01'0 0.0
2018-Feb-13 22:00N 53°27' W 003°01'0 0.0
2018-Feb-13 21:30N 53°27' W 003°01'0 0.0
2018-Feb-13 21:00N 53°27' W 003°01'0 0.0
2018-Feb-13 20:26N 53°27' W 003°01'0 0.0
2018-Feb-13 19:59N 53°27' W 003°01'0 0.0
2018-Feb-13 19:26N 53°27' W 003°01'0 0.0
2018-Feb-13 18:59N 53°27' W 003°01'0 0.0
2018-Feb-13 18:28N 53°27' W 003°01'0 0.0
2018-Feb-13 17:58N 53°27' W 003°01'0 0.2
2018-Feb-13 17:30N 53°27' W 003°01'0 0.8
2018-Feb-13 17:01N 53°27' W 003°01'1 2.6
2018-Feb-13 16:30N 53°28' W 003°03'612.7
2018-Feb-13 16:00N 53°31' W 003°11'816.7
2018-Feb-13 15:30N 53°31' W 003°25'919.0
2018-Feb-13 15:00N 53°31' W 003°41'1019.6
2018-Feb-13 14:30N 53°33' W 003°58'6018.7
2018-Feb-13 11:18N 53°26' W 005°38'820.3
2018-Feb-13 10:54N 53°23' W 005°51'719.0
2018-Feb-13 10:30N 53°20' W 006°02'611.7
2018-Feb-13 10:00N 53°21' W 006°12'1 1.5
2018-Feb-13 09:30N 53°21' W 006°13'0 0.0
2018-Feb-13 08:51N 53°21' W 006°13'0 0.0
2018-Feb-13 08:12N 53°21' W 006°13'0 0.0
2018-Feb-13 08:00N 53°21' W 006°13'0 0.0
2018-Feb-13 07:27N 53°21' W 006°13'0 0.0
2018-Feb-13 06:44N 53°21' W 006°13'0 0.0
2018-Feb-13 06:29N 53°21' W 006°13'0 0.0
2018-Feb-13 06:00N 53°21' W 006°13'1 2.5
2018-Feb-13 05:30N 53°21' W 006°11'612.2
2018-Feb-13 05:00N 53°21' W 006°01'917.3
2018-Feb-13 04:30N 53°24' W 005°47'6416.3
2018-Feb-13 00:33N 53°35' W 004°00'620.1
2018-Feb-13 00:14N 53°34' W 003°50'520.2
2018-Feb-12 23:58N 53°33' W 003°41'919.8
2018-Feb-12 23:30N 53°33' W 003°26'918.9
2018-Feb-12 23:00N 53°32' W 003°10'714.4
2018-Feb-12 22:30N 53°27' W 003°01'0 0.9
2018-Feb-12 22:00N 53°27' W 003°01'0 0.3
2018-Feb-12 21:29N 53°27' W 003°01'0 0.0
2018-Feb-12 20:49N 53°27' W 003°01'0 0.0
2018-Feb-12 20:28N 53°27' W 003°01'0 0.0
2018-Feb-12 19:55N 53°27' W 003°01'0 0.0
2018-Feb-12 19:25N 53°27' W 003°01'0 0.0
2018-Feb-12 18:58N 53°27' W 003°01'0 0.0
2018-Feb-12 18:27N 53°27' W 003°01'0 0.0
2018-Feb-12 18:00N 53°27' W 003°01'0 0.0
2018-Feb-12 17:30N 53°27' W 003°01'0 0.0
2018-Feb-12 17:00N 53°27' W 003°01'0 0.0
2018-Feb-12 16:26N 53°27' W 003°01'0 0.0
2018-Feb-12 15:35N 53°27' W 003°01'0 0.0
2018-Feb-12 15:14N 53°27' W 003°01'0 0.0
2018-Feb-12 14:56N 53°27' W 003°01'0 0.0
2018-Feb-12 14:29N 53°27' W 003°01'0 0.0
2018-Feb-12 13:58N 53°27' W 003°01'0 0.0
2018-Feb-12 13:28N 53°27' W 003°01'0 0.0
2018-Feb-12 12:58N 53°27' W 003°01'0 0.0
2018-Feb-12 12:28N 53°27' W 003°01'0 0.0
2018-Feb-12 11:58N 53°27' W 003°01'0 0.0
2018-Feb-12 11:30N 53°27' W 003°01'0 0.0
2018-Feb-12 11:00N 53°27' W 003°01'0 0.0
2018-Feb-12 10:30N 53°27' W 003°01'0 0.0
2018-Feb-12 10:00N 53°27' W 003°01'0 0.0
2018-Feb-12 09:29N 53°27' W 003°01'0 0.0
2018-Feb-12 08:56N 53°27' W 003°01'0 0.0
2018-Feb-12 08:29N 53°27' W 003°01'0 0.0
2018-Feb-12 07:59N 53°27' W 003°01'0 0.0
2018-Feb-12 07:26N 53°27' W 003°01'0 0.0
2018-Feb-12 06:58N 53°27' W 003°01'0 0.0
2018-Feb-12 06:28N 53°27' W 003°01'0 0.0
2018-Feb-12 06:00N 53°27' W 003°01'0 0.9
2018-Feb-12 05:30N 53°27' W 003°01'1 2.8
2018-Feb-12 05:00N 53°28' W 003°03'714.2
2018-Feb-12 04:30N 53°31' W 003°14'714.7
2018-Feb-12 04:00N 53°31' W 003°26'714.0
2018-Feb-12 03:30N 53°31' W 003°38'713.5
2018-Feb-12 03:00N 53°31' W 003°49'713.6
2018-Feb-12 02:30N 53°32' W 004°00'5714.7
2018-Feb-11 22:36N 53°26' W 005°36'216.9
2018-Feb-11 22:27N 53°25' W 005°40'816.7
2018-Feb-11 22:00N 53°23' W 005°52'816.4
2018-Feb-11 21:30N 53°20' W 006°05'5 9.5
2018-Feb-11 21:00N 53°21' W 006°13'0 0.5
2018-Feb-11 20:11N 53°21' W 006°13'0 0.0
2018-Feb-11 19:59N 53°21' W 006°13'0 0.0
2018-Feb-11 19:29N 53°21' W 006°13'0 0.0
2018-Feb-11 17:55N 53°21' W 006°13'0 0.0
2018-Feb-11 17:13N 53°21' W 006°13'0 0.0
2018-Feb-11 16:58N 53°21' W 006°13'0 0.0
2018-Feb-11 16:28N 53°21' W 006°13'0 0.0
2018-Feb-11 15:42N 53°21' W 006°13'0 0.0
2018-Feb-11 15:27N 53°21' W 006°13'0 0.0
2018-Feb-11 15:00N 53°21' W 006°13'0 0.0
2018-Feb-11 14:04N 53°21' W 006°13'0 0.0
2018-Feb-11 13:59N 53°21' W 006°13'0 0.0
2018-Feb-11 13:19N 53°21' W 006°13'0 0.0
2018-Feb-11 12:53N 53°21' W 006°13'0 0.0
2018-Feb-11 12:29N 53°21' W 006°13'0 0.0
2018-Feb-11 11:59N 53°21' W 006°13'0 0.0
2018-Feb-11 11:13N 53°21' W 006°13'0 0.0
2018-Feb-11 10:40N 53°21' W 006°13'0 0.0
2018-Feb-11 10:28N 53°21' W 006°13'0 0.0
2018-Feb-11 09:58N 53°21' W 006°13'0 0.0
2018-Feb-11 09:10N 53°21' W 006°13'0 0.0
2018-Feb-11 08:33N 53°21' W 006°13'0 0.0
2018-Feb-11 08:30N 53°21' W 006°13'0 0.0
2018-Feb-11 06:29N 53°21' W 006°13'0 0.0
2018-Feb-11 05:58N 53°21' W 006°13'1 1.8
2018-Feb-11 05:30N 53°21' W 006°12'611.1
2018-Feb-11 05:00N 53°21' W 006°03'815.2
2018-Feb-11 04:30N 53°24' W 005°51'7215.0
2018-Feb-10 23:40N 53°34' W 003°51'714.2
2018-Feb-10 23:11N 53°34' W 003°39'313.9
2018-Feb-10 23:00N 53°33' W 003°35'713.8
2018-Feb-10 22:30N 53°33' W 003°23'714.1
2018-Feb-10 22:00N 53°32' W 003°11'714.7
2018-Feb-10 21:30N 53°27' W 003°02'0 0.6
2018-Feb-10 21:00N 53°27' W 003°01'0 0.9
2018-Feb-10 20:28N 53°27' W 003°01'0 0.0
2018-Feb-10 19:58N 53°27' W 003°01'0 0.0
2018-Feb-10 19:30N 53°27' W 003°01'0 0.0
2018-Feb-10 19:00N 53°27' W 003°01'0 0.0
2018-Feb-10 18:27N 53°27' W 003°01'0 0.0
2018-Feb-10 18:00N 53°27' W 003°01'0 0.0
2018-Feb-10 17:30N 53°27' W 003°01'0 0.0
2018-Feb-10 16:59N 53°27' W 003°01'0 0.9
2018-Feb-10 16:28N 53°27' W 003°01'0 0.2
2018-Feb-10 16:01N 53°27' W 003°01'815.2
2018-Feb-10 15:30N 53°31' W 003°12'1019.2
2018-Feb-10 15:00N 53°31' W 003°28'1019.3
2018-Feb-10 14:31N 53°31' W 003°44'1020.1
2018-Feb-10 14:01N 53°33' W 004°00'5319.8
2018-Feb-10 11:18N 53°27' W 005°30'820.6
2018-Feb-10 10:56N 53°25' W 005°42'920.5
2018-Feb-10 10:31N 53°22' W 005°56'815.6
2018-Feb-10 10:00N 53°21' W 006°09'3 3.1
2018-Feb-10 09:12N 53°21' W 006°13'0 0.0
2018-Feb-10 09:00N 53°21' W 006°13'0 0.0
2018-Feb-10 08:29N 53°21' W 006°13'0 0.0
2018-Feb-10 07:50N 53°21' W 006°13'0 0.0
2018-Feb-10 07:08N 53°21' W 006°13'0 0.0
2018-Feb-10 06:56N 53°21' W 006°13'0 0.0
2018-Feb-10 06:26N 53°21' W 006°13'1 1.2
2018-Feb-10 06:01N 53°21' W 006°12'510.7
2018-Feb-10 05:30N 53°21' W 006°03'816.2
2018-Feb-10 05:00N 53°24' W 005°51'1019.5
2018-Feb-10 04:30N 53°26' W 005°35'5919.1
2018-Feb-10 01:25N 53°35' W 003°57'920.6
2018-Feb-10 01:00N 53°34' W 003°42'1020.8
2018-Feb-10 00:30N 53°33' W 003°25'918.6
2018-Feb-10 00:00N 53°32' W 003°10'713.8
2018-Feb-09 23:30N 53°27' W 003°01'0 0.1
2018-Feb-09 23:01N 53°27' W 003°01'0 1.7
2018-Feb-09 22:46N 53°27' W 003°01'8 1.2
2018-Feb-09 16:31N 53°31' W 003°12'1616.3
2018-Feb-09 15:30N 53°31' W 003°40'87 7.9
2018-Feb-09 04:30N 53°20' W 006°05'918.2
2018-Feb-09 04:00N 53°24' W 005°51'9218.5
2018-Feb-08 23:00N 53°31' W 003°16'815.8
2018-Feb-08 22:30N 53°28' W 003°04'7 1.0
2018-Feb-08 15:30N 53°31' W 003°15'9519.0
2018-Feb-08 10:30N 53°23' W 005°54'  

Dump ship's entire track history